Time;durP1;ratioP1;P1;durP2;ratioP2;P2;SDS_P1;SDS_P2;PMS_P1;PMS_P2;Temp;Humidity;BMP_temperature;BMP_pressure;BME280_temperature;BME280_humidity;BME280_pressure;Samples;Min_cycle;Max_cycle;Signal;HPM_P1;HPM_P2
2022/04/19 00:00:16;;;;;;;7.70;3.10;;;;;;;10.00;52.50;99618.88;1092057;39;20465;-81
2022/04/19 00:01:20;;;;;;;5.95;3.05;;;;;;;9.89;52.56;99619.09;1088334;54;20054;-82
2022/04/19 00:02:22;;;;;;;5.82;3.28;;;;;;;9.75;53.05;99621.28;1088440;54;20019;-80
2022/04/19 00:03:26;;;;;;;6.32;3.10;;;;;;;9.60;53.37;99614.78;1088088;54;20035;-81
2022/04/19 00:04:28;;;;;;;12.23;3.72;;;;;;;9.65;53.06;99617.81;1088993;46;20026;-81
2022/04/19 00:05:32;;;;;;;6.97;2.97;;;;;;;9.68;53.00;99612.19;1088391;54;20651;-81
2022/04/19 00:06:34;;;;;;;5.45;2.70;;;;;;;9.66;52.88;99615.03;1088340;54;20038;-81
2022/04/19 00:07:38;;;;;;;6.35;2.60;;;;;;;9.66;52.83;99617.69;1088355;54;20046;-80
2022/04/19 00:08:48;;;;;;;5.60;2.70;;;;;;;9.70;52.65;99620.03;1088280;54;20026;-80
2022/04/19 00:09:49;;;;;;;7.22;2.80;;;;;;;9.66;52.82;99608.81;1088227;54;20041;-79
2022/04/19 00:10:53;;;;;;;4.90;2.47;;;;;;;9.65;52.79;99607.13;1088315;54;20037;-80
2022/04/19 00:11:57;;;;;;;5.35;3.03;;;;;;;9.55;53.55;99617.03;1092219;39;20625;-81
2022/04/19 00:13:02;;;;;;;6.68;2.90;;;;;;;9.47;53.88;99607.13;1088371;54;20019;-80
2022/04/19 00:14:04;;;;;;;5.22;2.70;;;;;;;9.46;53.70;99614.25;1088325;54;20030;-81
2022/04/19 00:15:09;;;;;;;5.80;2.83;;;;;;;9.39;53.86;99607.84;1088311;54;20030;-79
2022/04/19 00:16:10;;;;;;;7.53;3.10;;;;;;;9.28;54.71;99600.03;1088292;54;20018;-81
2022/04/19 00:17:16;;;;;;;5.80;3.00;;;;;;;9.15;55.01;99606.56;1088315;54;20097;-81
2022/04/19 00:18:21;;;;;;;7.07;3.22;;;;;;;9.18;54.82;99611.59;1088298;54;20061;-80
2022/04/19 00:19:25;;;;;;;5.30;2.40;;;;;;;9.25;54.72;99613.69;1088174;54;20022;-80
2022/04/19 00:20:30;;;;;;;4.82;2.60;;;;;;;9.28;54.32;99611.56;1087834;54;20082;-80
2022/04/19 00:21:33;;;;;;;6.07;2.47;;;;;;;9.30;54.36;99614.94;1088286;54;20038;-82
2022/04/19 00:22:38;;;;;;;5.00;3.00;;;;;;;9.35;54.22;99603.81;1088509;54;20071;-81
2022/04/19 00:23:46;;;;;;;5.55;2.45;;;;;;;9.40;53.94;99601.53;1088507;54;20027;-82
2022/04/19 00:24:50;;;;;;;4.65;2.50;;;;;;;9.42;53.65;99602.22;1088402;54;20023;-81
2022/04/19 00:25:53;;;;;;;5.10;2.50;;;;;;;9.41;53.65;99600.53;1088435;54;20038;-82
2022/04/19 00:26:57;;;;;;;7.35;2.45;;;;;;;9.38;53.40;99598.16;1088374;54;20021;-82
2022/04/19 00:27:59;;;;;;;4.65;2.22;;;;;;;9.37;53.61;99593.81;1088456;54;20064;-82
2022/04/19 00:29:04;;;;;;;5.25;2.60;;;;;;;9.41;53.61;99594.34;1088384;54;20650;-83
2022/04/19 00:30:07;;;;;;;6.00;2.47;;;;;;;9.48;53.48;99595.47;1088457;54;20022;-82
2022/04/19 00:31:11;;;;;;;4.80;1.98;;;;;;;9.52;53.10;99599.50;1088354;54;20034;-81
2022/04/19 00:32:14;;;;;;;5.03;2.30;;;;;;;9.54;53.30;99605.53;1088442;54;20062;-82
2022/04/19 00:33:19;;;;;;;5.03;2.50;;;;;;;9.57;53.01;99593.72;1088329;54;20034;-83
2022/04/19 00:34:21;;;;;;;3.65;1.95;;;;;;;9.59;53.20;99599.75;1098118;39;20575;-81
2022/04/19 00:35:27;;;;;;;4.72;2.20;;;;;;;9.61;52.98;99593.25;1088420;54;20026;-82
2022/04/19 00:36:29;;;;;;;4.75;2.28;;;;;;;9.59;53.26;99594.41;1088175;54;20019;-83
2022/04/19 00:37:34;;;;;;;5.15;2.67;;;;;;;9.54;53.22;99591.34;1088298;54;20697;-82
2022/04/19 00:38:36;;;;;;;5.22;2.40;;;;;;;9.57;53.54;99594.56;1088420;54;20646;-82
2022/04/19 00:39:49;;;;;;;5.10;2.20;;;;;;;9.51;53.86;99587.13;1088356;54;20034;-82
2022/04/19 00:40:52;;;;;;;5.22;2.75;;;;;;;9.49;53.33;99586.47;1088454;54;20037;-81
2022/04/19 00:41:57;;;;;;;4.88;2.42;;;;;;;9.55;53.25;99590.34;1088372;54;20026;-82
2022/04/19 00:42:59;;;;;;;5.45;2.05;;;;;;;9.58;53.19;99587.38;1088485;54;20033;-82
2022/04/19 00:44:04;;;;;;;6.03;2.20;;;;;;;9.57;52.93;99589.22;1088354;54;20021;-82
2022/04/19 00:45:07;;;;;;;5.50;2.70;;;;;;;9.51;53.30;99584.47;1088303;54;20702;-82
2022/04/19 00:46:11;;;;;;;5.22;2.50;;;;;;;9.37;53.62;99593.81;1088484;54;20066;-81
2022/04/19 00:47:15;;;;;;;6.55;2.67;;;;;;;9.25;54.06;99584.34;1088440;54;20287;-82
2022/04/19 00:48:21;;;;;;;6.57;2.90;;;;;;;9.07;54.78;99592.25;1088355;54;20018;-82
2022/04/19 00:49:23;;;;;;;10.48;2.95;;;;;;;9.01;55.07;99597.22;1088424;54;20014;-82
2022/04/19 00:50:27;;;;;;;7.63;3.15;;;;;;;8.98;55.39;99592.16;1088409;54;20100;-82
2022/04/19 00:51:31;;;;;;;7.90;3.63;;;;;;;8.95;55.36;99588.94;1088333;54;20023;-82
2022/04/19 00:52:37;;;;;;;8.35;3.13;;;;;;;8.89;55.66;99595.69;1093087;46;20050;-82
2022/04/19 00:53:43;;;;;;;8.27;3.40;;;;;;;8.90;55.69;99586.72;1088281;54;20026;-81
2022/04/19 00:54:47;;;;;;;6.50;3.00;;;;;;;8.92;55.63;99578.56;1088357;54;20086;-82
2022/04/19 00:55:59;;;;;;;6.60;3.35;;;;;;;8.76;56.81;99588.03;1088433;54;20010;-82
2022/04/19 00:57:01;;;;;;;6.13;3.00;;;;;;;8.75;56.36;99583.66;1088337;54;20018;-81
2022/04/19 00:58:18;;;;;;;8.02;3.15;;;;;;;8.70;57.05;99588.56;1090449;46;20787;-82
2022/04/19 00:59:21;;;;;;;12.07;3.60;;;;;;;8.55;57.15;99583.72;1088421;47;20015;-82
2022/04/19 01:00:26;;;;;;;6.50;3.33;;;;;;;8.45;57.56;99585.50;1090316;46;20026;-80
2022/04/19 01:01:27;;;;;;;6.60;3.30;;;;;;;8.33;58.16;99592.81;1088181;54;20015;-79
2022/04/19 01:02:31;;;;;;;6.68;3.47;;;;;;;8.22;58.98;99583.13;1088214;54;20026;-80
2022/04/19 01:03:33;;;;;;;8.77;3.63;;;;;;;8.07;59.87;99585.41;1089442;47;20054;-80
2022/04/19 01:04:38;;;;;;;8.32;3.72;;;;;;;7.99;60.38;99577.25;1088198;54;20038;-80
2022/04/19 01:05:43;;;;;;;9.82;4.43;;;;;;;8.04;60.49;99579.50;1088203;54;20023;-80
2022/04/19 01:06:48;;;;;;;9.18;3.40;;;;;;;8.13;59.71;99586.66;1090288;46;20114;-79
2022/04/19 01:07:50;;;;;;;5.65;3.58;;;;;;;8.21;59.10;99583.28;1088741;46;20015;-80
2022/04/19 01:08:54;;;;;;;6.43;3.35;;;;;;;8.08;59.58;99575.59;1088149;54;20037;-80
2022/04/19 01:09:59;;;;;;;7.28;4.13;;;;;;;7.86;60.24;99582.03;1087753;54;20031;-80
2022/04/19 01:13:51;;;;;;;9.43;3.78;;;;;;;7.64;60.88;99576.81;1087985;54;20042;-80
2022/04/19 01:14:55;;;;;;;8.48;3.20;;;;;;;7.65;60.42;99582.97;1087845;54;20010;-79
2022/04/19 01:15:59;;;;;;;6.43;3.85;;;;;;;7.62;60.57;99576.13;1087849;54;20110;-80
2022/04/19 01:17:01;;;;;;;8.13;3.95;;;;;;;7.54;60.73;99570.63;1087786;54;20061;-80
2022/04/19 01:18:06;;;;;;;7.38;3.88;;;;;;;7.55;61.02;99568.81;1087803;54;20037;-80
2022/04/19 01:19:15;;;;;;;6.95;3.88;;;;;;;7.45;61.37;99574.94;1087894;54;20078;-79
2022/04/19 01:20:19;;;;;;;6.22;3.90;;;;;;;7.44;60.98;99567.13;1089040;46;20022;-80
2022/04/19 01:21:20;;;;;;;9.57;4.20;;;;;;;7.41;61.24;99564.72;1088255;39;20552;-80
2022/04/19 01:22:27;;;;;;;7.43;3.72;;;;;;;7.33;61.62;99570.72;1093095;31;20603;-80
2022/04/19 01:23:29;;;;;;;7.38;3.88;;;;;;;7.33;61.30;99563.59;1087853;54;20034;-80
2022/04/19 01:24:33;;;;;;;6.88;3.65;;;;;;;7.25;61.81;99560.78;1087860;54;20026;-79
2022/04/19 01:25:35;;;;;;;7.50;3.58;;;;;;;7.23;61.90;99562.72;1087739;54;20057;-80
2022/04/19 01:26:39;;;;;;;6.20;3.60;;;;;;;7.22;61.88;99569.00;1087340;54;20057;-80
2022/04/19 01:27:41;;;;;;;7.65;3.70;;;;;;;7.23;61.82;99567.19;1087694;54;20023;-79
2022/04/19 01:28:45;;;;;;;6.25;3.38;;;;;;;7.22;62.05;99562.88;1087870;54;20075;-80
2022/04/19 01:29:48;;;;;;;5.93;3.10;;;;;;;7.21;62.10;99574.47;1087904;54;20019;-80
2022/04/19 01:30:54;;;;;;;6.13;3.60;;;;;;;7.18;62.35;99571.09;1087871;54;20030;-81
2022/04/19 01:31:56;;;;;;;7.00;3.35;;;;;;;7.16;62.76;99569.56;1087622;54;20034;-81
2022/04/19 01:33:01;;;;;;;6.95;3.80;;;;;;;7.19;62.56;99574.59;1087506;54;20085;-80
2022/04/19 01:34:03;;;;;;;7.07;3.90;;;;;;;7.20;62.34;99568.28;1087269;54;20034;-80
2022/04/19 01:35:13;;;;;;;5.65;3.60;;;;;;;7.15;62.73;99571.34;1089322;47;20034;-80
2022/04/19 01:36:14;;;;;;;7.13;3.60;;;;;;;7.15;62.67;99567.88;1087249;54;20042;-80
2022/04/19 01:37:18;;;;;;;6.88;3.70;;;;;;;7.25;62.49;99567.88;1087393;54;20035;-81
2022/04/19 01:38:23;;;;;;;5.80;3.33;;;;;;;7.31;62.38;99567.38;1087979;54;20051;-81
2022/04/19 01:40:43;;;;;;;6.30;3.00;;;;;;;7.51;61.23;99565.59;1087933;54;21305;-80
2022/04/19 01:41:45;;;;;;;4.95;2.60;;;;;;;7.63;60.62;99567.16;1087952;54;20034;-80
2022/04/19 01:43:05;;;;;;;5.85;3.05;;;;;;;7.72;60.48;99564.66;1087771;54;20026;-80
2022/04/19 01:44:08;;;;;;;6.68;3.22;;;;;;;7.74;59.91;99563.53;1089418;39;20598;-81
2022/04/19 01:45:13;;;;;;;5.70;2.83;;;;;;;7.85;59.66;99567.03;1087969;54;20022;-81
2022/04/19 01:46:16;;;;;;;7.15;3.28;;;;;;;7.83;59.75;99555.69;1089960;46;20041;-80
2022/04/19 01:47:21;;;;;;;5.00;2.72;;;;;;;7.86;59.43;99560.75;1088713;46;20019;-80
2022/04/19 01:48:25;;;;;;;7.47;3.00;;;;;;;7.88;59.16;99558.78;1088358;54;20038;-80
2022/04/19 01:49:28;;;;;;;9.18;3.58;;;;;;;7.93;58.93;99564.53;1090628;46;20049;-80
2022/04/19 01:50:33;;;;;;;7.00;2.97;;;;;;;7.90;58.95;99552.34;1096226;46;20321;-80
2022/04/19 01:51:37;;;;;;;5.97;3.17;;;;;;;7.89;59.07;99553.31;1088564;54;20214;-81
2022/04/19 01:52:41;;;;;;;5.70;3.22;;;;;;;7.87;59.02;99560.59;1091624;46;20046;-81
2022/04/19 01:53:45;;;;;;;5.85;2.80;;;;;;;7.93;58.91;99557.38;1090451;46;20045;-80
2022/04/19 01:54:49;;;;;;;7.82;3.13;;;;;;;7.90;59.15;99552.34;1088305;54;20026;-81
2022/04/19 01:55:54;;;;;;;5.88;2.92;;;;;;;7.88;59.07;99548.13;1088215;54;20046;-80
2022/04/19 01:56:55;;;;;;;5.18;2.75;;;;;;;7.91;58.86;99548.69;1088206;54;20026;-81
2022/04/19 01:58:01;;;;;;;6.60;2.60;;;;;;;7.96;58.87;99551.75;1088285;54;20548;-80
2022/04/19 01:59:03;;;;;;;5.97;2.92;;;;;;;8.00;58.62;99554.16;1088647;46;20038;-80
2022/04/19 02:00:08;;;;;;;6.30;2.90;;;;;;;8.04;58.52;99550.22;1088296;39;20792;-80
2022/04/19 02:01:10;;;;;;;4.97;2.70;;;;;;;8.04;58.31;99542.22;1088477;39;20990;-80
2022/04/19 02:02:14;;;;;;;5.32;2.30;;;;;;;8.05;58.24;99546.56;1087373;54;20031;-80
2022/04/19 02:03:16;;;;;;;5.75;2.47;;;;;;;8.08;58.22;99548.97;1087854;54;20039;-81
2022/04/19 02:04:21;;;;;;;5.25;2.13;;;;;;;8.09;57.99;99555.97;1088061;46;20025;-80
2022/04/19 02:05:25;;;;;;;5.72;2.50;;;;;;;8.01;58.20;99555.84;1088113;54;20030;-81
2022/04/19 02:06:27;;;;;;;5.38;2.38;;;;;;;8.01;58.34;99556.66;1088307;54;20034;-81
2022/04/19 02:07:32;;;;;;;7.40;2.20;;;;;;;7.98;58.47;99554.31;1088386;54;20026;-80
2022/04/19 02:08:33;;;;;;;8.45;2.83;;;;;;;7.95;58.39;99550.09;1088381;54;20027;-81
2022/04/19 02:09:40;;;;;;;4.32;2.17;;;;;;;8.03;58.20;99556.56;1088404;54;20042;-82
2022/04/19 02:10:42;;;;;;;5.53;2.88;;;;;;;8.07;57.96;99563.25;1088501;54;20014;-80
2022/04/19 02:11:47;;;;;;;5.38;2.65;;;;;;;8.07;57.75;99563.25;1088498;54;20772;-82
2022/04/19 02:12:50;;;;;;;5.53;2.75;;;;;;;8.02;57.73;99550.38;1088587;54;20034;-81
2022/04/19 02:13:54;;;;;;;5.90;2.50;;;;;;;8.00;57.80;99559.47;1093839;31;20529;-81
2022/04/19 02:14:57;;;;;;;6.10;3.10;;;;;;;7.95;57.93;99560.72;1088564;54;20025;-81
2022/04/19 02:16:01;;;;;;;5.68;2.97;;;;;;;7.88;58.08;99556.13;1088601;54;20026;-81
2022/04/19 02:17:03;;;;;;;6.03;2.75;;;;;;;7.64;59.19;99560.00;1088405;54;20019;-81
2022/04/19 02:18:10;;;;;;;6.97;3.50;;;;;;;7.41;59.96;99554.09;1088232;54;20026;-80
2022/04/19 02:19:11;;;;;;;6.30;2.70;;;;;;;7.34;60.22;99557.28;1088567;54;20018;-81
2022/04/19 02:20:17;;;;;;;7.68;3.17;;;;;;;7.25;60.64;99557.25;1088574;54;20046;-81
2022/04/19 02:21:21;;;;;;;6.60;3.13;;;;;;;7.07;61.48;99565.03;1088510;54;20034;-81
2022/04/19 02:22:23;;;;;;;6.15;3.40;;;;;;;7.03;61.59;99562.66;1088588;54;20034;-81
2022/04/19 02:23:27;;;;;;;6.80;3.58;;;;;;;6.94;61.80;99570.59;1088598;54;20035;-82
2022/04/19 02:24:29;;;;;;;6.20;3.63;;;;;;;6.91;62.09;99566.34;1089290;39;20618;-82
2022/04/19 02:25:37;;;;;;;7.80;3.47;;;;;;;6.94;61.92;99565.28;1088540;54;20026;-81
2022/04/19 02:26:39;;;;;;;5.63;2.90;;;;;;;6.87;62.03;99565.78;1088460;54;20038;-81
2022/04/19 02:27:45;;;;;;;5.30;2.97;;;;;;;6.88;61.91;99563.97;1089980;39;20492;-82
2022/04/19 02:28:47;;;;;;;6.93;3.35;;;;;;;6.86;61.96;99564.09;1088563;54;20038;-81
2022/04/19 02:29:52;;;;;;;9.85;4.45;;;;;;;6.87;61.86;99560.47;1088468;54;20015;-81
2022/04/19 02:30:55;;;;;;;7.15;3.72;;;;;;;6.79;62.06;99567.44;1088517;54;20033;-80
2022/04/19 02:32:00;;;;;;;5.60;3.00;;;;;;;6.81;62.15;99563.66;1088474;54;20114;-81
2022/04/19 02:33:02;;;;;;;5.80;3.33;;;;;;;6.82;62.12;99562.69;1088533;54;20022;-81
2022/04/19 02:34:11;;;;;;;6.05;3.33;;;;;;;6.84;62.32;99562.56;1090789;39;20834;-81
2022/04/19 02:35:15;;;;;;;5.70;3.00;;;;;;;6.82;62.04;99554.72;1088297;54;20034;-81
2022/04/19 02:36:19;;;;;;;6.15;3.00;;;;;;;6.81;62.08;99563.66;1088586;54;20011;-81
2022/04/19 02:37:21;;;;;;;5.97;2.88;;;;;;;6.86;62.21;99565.94;1088621;54;20046;-81
2022/04/19 02:38:26;;;;;;;6.40;2.90;;;;;;;6.87;62.05;99559.66;1088543;54;20053;-81
2022/04/19 02:39:28;;;;;;;7.13;3.17;;;;;;;6.82;62.11;99556.53;1088506;54;20037;-81
2022/04/19 02:40:36;;;;;;;5.28;2.95;;;;;;;6.78;62.25;99555.13;1088475;54;20021;-80
2022/04/19 02:41:38;;;;;;;8.07;3.30;;;;;;;6.77;62.14;99556.09;1088483;54;20034;-81
2022/04/19 02:42:42;;;;;;;6.95;3.63;;;;;;;6.83;62.29;99555.56;1088607;54;20030;-81
2022/04/19 02:43:46;;;;;;;6.82;3.00;;;;;;;6.89;61.97;99556.84;1088572;54;20030;-81
2022/04/19 02:44:50;;;;;;;7.95;3.58;;;;;;;6.89;61.93;99554.19;1088524;54;20103;-82
2022/04/19 02:45:54;;;;;;;5.50;3.03;;;;;;;6.87;61.82;99559.66;1088509;54;20034;-80
2022/04/19 02:46:58;;;;;;;5.22;3.08;;;;;;;6.85;62.04;99549.13;1092241;46;20034;-82
2022/04/19 02:48:03;;;;;;;8.25;3.47;;;;;;;6.81;62.10;99549.53;1088546;54;20037;-81
2022/04/19 02:49:08;;;;;;;6.22;3.00;;;;;;;6.79;62.25;99547.00;1088540;54;20019;-80
2022/04/19 02:50:16;;;;;;;6.20;3.13;;;;;;;6.83;62.65;99544.94;1088358;54;20030;-80
2022/04/19 02:51:26;;;;;;;5.63;2.83;;;;;;;6.76;62.65;99544.59;1087787;54;20049;-81
2022/04/19 02:52:27;;;;;;;7.72;3.22;;;;;;;6.75;62.65;99542.94;1087777;54;20065;-80
2022/04/19 02:53:32;;;;;;;6.13;3.50;;;;;;;6.82;62.71;99540.59;1089930;39;20541;-80
2022/04/19 02:54:34;;;;;;;5.30;3.00;;;;;;;6.87;62.25;99544.53;1088340;54;20689;-80
2022/04/19 02:55:41;;;;;;;6.95;3.03;;;;;;;6.93;62.09;99542.31;1088364;54;20041;-80
2022/04/19 02:56:42;;;;;;;6.88;2.70;;;;;;;6.98;61.86;99540.97;1088297;54;20049;-80
2022/04/19 02:57:46;;;;;;;6.45;2.70;;;;;;;7.04;61.67;99536.88;1088255;54;20042;-81
2022/04/19 02:58:48;;;;;;;6.38;4.03;;;;;;;7.07;61.57;99536.63;1087927;54;20053;-80
2022/04/19 02:59:53;;;;;;;5.35;2.88;;;;;;;7.03;61.59;99538.72;1088013;54;20600;-80
2022/04/19 03:00:55;;;;;;;6.93;3.47;;;;;;;6.94;61.86;99539.53;1088085;54;20042;-80
2022/04/19 03:01:59;;;;;;;6.55;3.60;;;;;;;6.89;62.38;99538.25;1088368;54;20050;-81
2022/04/19 03:03:01;;;;;;;7.28;3.15;;;;;;;6.81;62.50;99537.09;1087871;54;20046;-81
2022/04/19 03:04:05;;;;;;;6.38;3.35;;;;;;;6.83;62.77;99540.47;1088453;54;20081;-80
2022/04/19 03:05:14;;;;;;;7.30;3.35;;;;;;;6.78;63.24;99532.03;1088450;54;20038;-80
2022/04/19 03:06:18;;;;;;;6.18;3.40;;;;;;;6.77;62.98;99538.31;1088727;46;20033;-80
2022/04/19 03:07:22;;;;;;;6.60;3.08;;;;;;;6.76;63.35;99530.50;1088215;54;20027;-81
2022/04/19 03:08:26;;;;;;;7.00;3.58;;;;;;;6.66;63.60;99536.59;1089686;39;20382;-81
2022/04/19 03:09:30;;;;;;;8.77;3.58;;;;;;;6.65;64.04;99542.88;1089487;46;20053;-81
2022/04/19 03:10:34;;;;;;;8.40;3.42;;;;;;;6.59;64.31;99548.75;1097916;46;20038;-79
2022/04/19 03:11:38;;;;;;;6.80;3.72;;;;;;;6.57;64.88;99542.72;1088389;54;20049;-81
2022/04/19 03:12:43;;;;;;;5.88;3.00;;;;;;;6.59;64.67;99535.47;1088411;54;20007;-80
2022/04/19 03:13:46;;;;;;;6.35;3.25;;;;;;;6.74;63.86;99543.94;1088404;54;20038;-79
2022/04/19 03:14:50;;;;;;;6.22;2.92;;;;;;;6.83;63.75;99539.63;1088447;54;20012;-80
2022/04/19 03:15:52;;;;;;;6.00;3.17;;;;;;;6.87;63.53;99543.69;1088398;54;20035;-80
2022/04/19 03:16:56;;;;;;;6.28;3.30;;;;;;;6.94;62.95;99542.19;1088369;54;20018;-80
2022/04/19 03:17:58;;;;;;;5.93;3.50;;;;;;;6.99;62.83;99541.78;1088434;54;20065;-81
2022/04/19 03:19:02;;;;;;;7.03;3.05;;;;;;;7.00;62.89;99544.28;1088202;54;20082;-80
2022/04/19 03:20:08;;;;;;;5.65;3.17;;;;;;;7.09;62.60;99536.50;1088122;54;20023;-80
2022/04/19 03:21:13;;;;;;;4.65;2.35;;;;;;;7.13;62.29;99543.22;1088371;54;20015;-79
2022/04/19 03:22:14;;;;;;;5.00;2.80;;;;;;;7.17;62.03;99539.34;1088348;54;20682;-80
2022/04/19 03:28:27;;;;;;;7.13;3.13;;;;;;;7.14;61.35;99536.94;1088379;54;20015;-80
2022/04/19 03:29:28;;;;;;;7.07;3.08;;;;;;;7.08;61.40;99537.50;1088352;54;20026;-80
2022/04/19 03:30:32;;;;;;;5.07;2.67;;;;;;;7.13;61.09;99529.94;1088243;54;20015;-81
2022/04/19 03:31:34;;;;;;;5.88;2.55;;;;;;;7.14;61.18;99528.97;1088432;54;20015;-81
2022/04/19 03:32:38;;;;;;;6.03;2.50;;;;;;;7.14;60.94;99531.63;1098418;39;20754;-80
2022/04/19 03:33:40;;;;;;;6.43;2.85;;;;;;;7.14;60.99;99539.59;1088546;54;20014;-80
2022/04/19 03:34:45;;;;;;;4.82;2.30;;;;;;;7.14;61.04;99528.97;1088534;54;20130;-81
2022/04/19 03:35:50;;;;;;;4.32;2.50;;;;;;;7.13;60.87;99529.94;1088546;54;20046;-81
2022/04/19 03:37:05;;;;;;;4.80;2.60;;;;;;;7.10;60.99;99531.06;1088642;54;20023;-81
2022/04/19 03:40:01;;;;;;;5.85;3.13;;;;;;;7.06;61.07;99531.47;1088452;54;20019;-81
2022/04/19 03:43:21;;;;;;;5.90;2.70;;;;;;;7.00;61.29;99528.34;1088212;54;19995;-81
2022/04/19 04:26:06;;;;;;;5.30;2.60;;;;;;;6.74;60.89;99548.38;1076936;54;19953;-83
2022/04/19 04:27:11;;;;;;;6.97;3.13;;;;;;;6.77;60.78;99556.09;1092949;39;20577;-82
2022/04/19 05:28:38;;;;;;;10.05;3.63;;;;;;;7.12;61.71;99573.44;1087807;54;20023;-84
2022/04/19 05:49:25;;;;;;;8.90;4.00;;;;;;;7.22;61.41;99562.88;1088422;54;20039;-85
2022/04/19 06:47:07;;;;;;;7.78;3.80;;;;;;;8.70;56.45;99553.94;1087138;39;21100;-80
2022/04/19 06:50:23;;;;;;;9.75;3.72;;;;;;;8.71;56.65;99561.81;1087203;46;20046;-79
2022/04/19 06:51:32;;;;;;;8.40;3.80;;;;;;;8.81;55.88;99553.75;1086476;54;20018;-79
2022/04/19 06:52:37;;;;;;;9.32;3.20;;;;;;;8.81;55.97;99555.59;1086927;54;20039;-81
2022/04/19 06:53:38;;;;;;;8.75;3.53;;;;;;;8.87;55.74;99555.88;1086575;54;20035;-79
2022/04/19 06:54:44;;;;;;;8.68;3.58;;;;;;;8.94;55.52;99560.59;1086897;46;20046;-80
2022/04/19 06:55:57;;;;;;;6.57;3.38;;;;;;;8.99;55.20;99550.31;1085860;54;20120;-78
2022/04/19 06:57:01;;;;;;;7.05;3.47;;;;;;;9.05;55.28;99552.44;1086015;54;20034;-80
2022/04/19 06:58:06;;;;;;;6.90;3.55;;;;;;;9.12;55.09;99553.50;1084987;54;20038;-79
2022/04/19 06:59:08;;;;;;;9.52;3.33;;;;;;;9.17;55.13;99553.06;1086301;54;20046;-81
2022/04/19 07:00:15;;;;;;;9.30;3.40;;;;;;;9.19;54.96;99559.09;1086632;54;20041;-80
2022/04/19 07:01:54;;;;;;;9.05;3.78;;;;;;;9.18;54.26;99550.25;1086887;46;20038;-81
2022/04/19 07:03:01;;;;;;;7.35;3.35;;;;;;;9.27;54.29;99553.00;1086371;54;20017;-79
2022/04/19 07:04:04;;;;;;;8.70;3.83;;;;;;;9.27;54.13;99550.34;1086453;54;20038;-79
2022/04/19 07:07:05;;;;;;;11.02;4.18;;;;;;;9.38;54.00;99544.81;1087294;39;20781;-79
2022/04/19 07:08:11;;;;;;;6.50;2.65;;;;;;;9.51;53.84;99547.97;1089069;39;20508;-78
2022/04/19 07:09:13;;;;;;;6.13;3.55;;;;;;;9.51;53.54;99550.63;1086355;54;20142;-79
2022/04/19 07:10:20;;;;;;;11.35;3.90;;;;;;;9.56;53.60;99546.66;1086919;54;20051;-79
2022/04/19 07:11:23;;;;;;;9.95;3.63;;;;;;;9.56;53.49;99549.31;1086446;54;20054;-80
2022/04/19 07:12:29;;;;;;;9.18;3.65;;;;;;;9.67;53.33;99546.44;1085931;54;20050;-81
2022/04/19 07:13:34;;;;;;;6.80;3.30;;;;;;;9.75;53.36;99546.53;1086324;54;20182;-80
2022/04/19 07:14:39;;;;;;;9.35;4.18;;;;;;;9.77;53.11;99549.88;1086356;54;20042;-82
2022/04/19 07:15:45;;;;;;;8.15;3.60;;;;;;;9.87;52.74;99543.63;1087177;54;20039;-81
2022/04/19 07:16:47;;;;;;;6.45;4.10;;;;;;;9.96;52.74;99545.41;1087085;54;20042;-81
2022/04/19 07:17:52;;;;;;;10.32;4.57;;;;;;;9.91;52.67;99537.03;1087332;54;20015;-80
2022/04/19 07:18:59;;;;;;;11.75;4.78;;;;;;;9.98;52.45;99546.09;1087781;54;20041;-81
2022/04/19 07:47:58;;;;;;;11.65;4.45;;;;;;;12.61;45.75;99531.19;1086614;54;20034;-79
2022/04/19 07:49:00;;;;;;;7.28;3.88;;;;;;;12.77;45.96;99511.50;1087049;54;20544;-79
2022/04/19 07:50:06;;;;;;;11.90;4.40;;;;;;;12.93;45.90;99511.47;1087186;54;20031;-80
2022/04/19 07:51:10;;;;;;;9.02;3.88;;;;;;;12.94;45.84;99515.81;1087565;54;20070;-80
2022/04/19 07:52:15;;;;;;;9.10;4.32;;;;;;;13.08;45.27;99510.75;1087982;54;20025;-79
2022/04/19 07:53:17;;;;;;;8.07;4.35;;;;;;;13.31;45.08;99505.44;1087282;54;20054;-79
2022/04/19 07:54:22;;;;;;;8.95;3.67;;;;;;;13.49;44.68;99505.22;1087154;54;20094;-80
2022/04/19 07:55:24;;;;;;;15.18;8.77;;;;;;;13.69;44.13;99508.25;1086813;54;20042;-80
2022/04/19 07:56:28;;;;;;;15.18;7.05;;;;;;;13.81;43.65;99500.63;1087137;54;20049;-78
2022/04/19 07:57:33;;;;;;;13.90;9.80;;;;;;;14.01;43.61;99506.34;1086858;54;20069;-80
2022/04/19 07:58:38;;;;;;;14.82;8.38;;;;;;;14.11;42.85;99506.09;1086917;54;20600;-78
2022/04/19 07:59:40;;;;;;;17.13;9.07;;;;;;;14.19;42.53;99508.72;1087049;54;20038;-80
2022/04/19 08:01:00;;;;;;;14.88;9.38;;;;;;;14.30;42.15;99512.84;1087679;54;20033;-79
2022/04/19 08:02:11;;;;;;;16.63;11.20;;;;;;;14.39;42.12;99502.81;1087563;54;20030;-80
2022/04/19 08:03:19;;;;;;;17.38;8.43;;;;;;;14.48;41.25;99511.66;1088096;54;20054;-80
2022/04/19 08:04:21;;;;;;;13.63;6.72;;;;;;;14.53;41.75;99503.03;1088277;54;20034;-80
2022/04/19 08:05:26;;;;;;;20.42;6.93;;;;;;;14.06;41.92;99499.59;1088356;54;20058;-80
2022/04/19 08:06:31;;;;;;;19.77;6.28;;;;;;;14.23;41.88;99502.97;1088496;54;20023;-81
2022/04/19 08:07:35;;;;;;;12.65;5.43;;;;;;;14.48;40.98;99501.72;1088595;54;20049;-80
2022/04/19 08:08:42;;;;;;;8.48;5.00;;;;;;;14.75;41.06;99496.75;1089658;46;20054;-81
2022/04/19 08:09:47;;;;;;;13.45;5.68;;;;;;;14.78;40.52;99504.47;1087890;54;20046;-79
2022/04/19 08:10:49;;;;;;;8.70;4.85;;;;;;;14.92;40.65;99496.59;1087364;54;20030;-79
2022/04/19 08:11:59;;;;;;;9.13;5.03;;;;;;;14.86;40.03;99497.31;1086911;54;20035;-82
2022/04/19 08:13:01;;;;;;;;;;;;;;;14.81;39.94;99495.19;1086928;54;20062;-81
2022/04/19 08:14:13;;;;;;;7.32;4.32;;;;;;;15.01;39.91;99495.47;1086421;54;19974;-79
2022/04/19 08:15:26;;;;;;;8.40;4.60;;;;;;;15.12;39.94;99497.66;1087370;54;20041;-80
2022/04/19 08:16:32;;;;;;;13.07;5.20;;;;;;;14.94;40.33;99499.91;1087877;54;20034;-81
2022/04/19 08:17:39;;;;;;;13.00;4.60;;;;;;;15.31;40.07;99490.00;1086507;54;20142;-79
2022/04/19 08:18:48;;;;;;;7.32;4.25;;;;;;;15.39;39.56;99492.63;1086665;54;20102;-79
2022/04/19 08:19:55;;;;;;;12.10;4.97;;;;;;;15.53;38.64;99480.13;1086825;54;20030;-78
2022/04/19 08:21:00;;;;;;;13.70;5.75;;;;;;;15.72;38.72;99489.44;1085410;54;20034;-78
2022/04/19 10:09:02;;;;;;;11.15;5.82;;;;;;;20.19;26.65;99395.38;1087940;54;20027;-83
2022/04/19 10:10:06;;;;;;;8.52;5.13;;;;;;;20.60;26.03;99390.34;1087996;54;20038;-83
2022/04/19 10:11:12;;;;;;;6.85;4.80;;;;;;;20.87;25.62;99387.38;1087859;54;20173;-83
2022/04/19 10:12:20;;;;;;;6.88;4.20;;;;;;;21.07;25.67;99384.38;1087827;54;20064;-83
2022/04/19 10:13:26;;;;;;;8.40;4.65;;;;;;;20.97;24.61;99384.91;1087945;54;20035;-83
2022/04/19 10:14:33;;;;;;;9.80;5.38;;;;;;;20.71;24.92;99389.59;1087898;54;20042;-84
2022/04/19 10:15:36;;;;;;;13.20;5.45;;;;;;;20.73;25.15;99384.81;1088003;54;20057;-85
2022/04/19 10:16:50;;;;;;;9.18;5.85;;;;;;;20.72;24.56;99388.53;1087926;54;20042;-84
2022/04/19 10:17:56;;;;;;;9.80;5.38;;;;;;;21.01;24.84;99380.69;1088334;54;20647;-83
2022/04/19 10:19:10;;;;;;;7.40;5.05;;;;;;;21.24;24.49;99387.28;1088293;54;20034;-83
2022/04/19 10:20:13;;;;;;;8.10;5.00;;;;;;;21.08;24.44;99379.75;1088271;54;20056;-82
2022/04/19 10:21:21;;;;;;;11.20;5.68;;;;;;;20.52;24.79;99380.63;1088244;54;20042;-83
2022/04/19 10:22:24;;;;;;;10.48;5.38;;;;;;;20.44;25.17;99380.09;1088318;54;20041;-84
2022/04/19 10:23:39;;;;;;;7.70;5.30;;;;;;;20.78;24.12;99372.44;1088322;54;20161;-83
2022/04/19 10:24:48;;;;;;;8.18;5.47;;;;;;;20.79;24.78;99371.34;1088327;54;20056;-82
2022/04/19 10:25:53;;;;;;;10.27;5.72;;;;;;;20.85;24.47;99368.56;1088679;46;20722;-83
2022/04/19 10:26:57;;;;;;;9.10;7.18;;;;;;;21.00;24.47;99379.03;1088330;54;20030;-83
2022/04/19 10:28:03;;;;;;;14.35;11.20;;;;;;;20.94;24.58;99369.09;1088246;54;20030;-81
2022/04/19 10:29:22;;;;;;;9.35;7.45;;;;;;;20.92;23.76;99371.19;1088171;54;20034;-81
2022/04/19 10:32:06;;;;;;;13.13;6.72;;;;;;;20.03;25.27;99369.66;1067629;54;20030;-82
2022/04/19 10:33:59;;;;;;;8.80;5.60;;;;;;;19.68;25.29;99378.28;1088108;54;20113;-84
2022/04/19 10:35:25;;;;;;;8.40;5.45;;;;;;;19.51;25.86;99377.97;1088044;54;20057;-85
2022/04/19 10:36:47;;;;;;;13.38;5.93;;;;;;;19.18;26.02;99379.88;1087912;54;20041;-82
2022/04/19 10:38:24;;;;;;;7.78;5.10;;;;;;;19.02;26.01;99374.97;1088017;54;20030;-83
2022/04/19 10:39:36;;;;;;;10.27;6.05;;;;;;;19.01;26.38;99368.72;1088430;54;20026;-82
2022/04/19 10:41:52;;;;;;;8.10;5.20;;;;;;;19.25;25.92;99362.75;1066135;54;20034;31
2022/04/19 10:45:51;;;;;;;7.28;4.57;;;;;;;19.73;25.95;99358.63;1088312;54;20026;-85